Time;durP1;ratioP1;P1;durP2;ratioP2;P2;SDS_P1;SDS_P2;PMS_P1;PMS_P2;Temp;Humidity;BMP_temperature;BMP_pressure;BME280_temperature;BME280_humidity;BME280_pressure;Samples;Min_cycle;Max_cycle;Signal;HPM_P1;HPM_P2
2021/10/05 00:02:10;;;;;;;2.13;1.80;;;23.10;55.40;;;;;;5054293;28;20475;-74
2021/10/05 00:04:36;;;;;;;2.67;1.90;;;23.10;55.50;;;;;;5061660;28;20474;-73
2021/10/05 00:07:01;;;;;;;2.55;1.77;;;23.10;55.40;;;;;;5061145;28;20380;-73
2021/10/05 00:09:27;;;;;;;2.35;1.63;;;23.10;55.40;;;;;;5061660;28;20399;-74
2021/10/05 00:11:53;;;;;;;2.55;1.80;;;23.10;55.40;;;;;;5061844;28;20748;-74
2021/10/05 00:14:19;;;;;;;2.25;1.85;;;23.00;55.30;;;;;;5050959;28;20403;-73
2021/10/05 00:16:44;;;;;;;2.33;1.83;;;23.00;55.40;;;;;;5064826;28;20430;-74
2021/10/05 00:19:10;;;;;;;2.10;1.70;;;23.00;55.30;;;;;;5064898;28;20419;-74
2021/10/05 00:21:36;;;;;;;2.45;1.92;;;23.00;55.30;;;;;;5065383;28;20502;-74
2021/10/05 00:24:01;;;;;;;2.85;2.00;;;23.00;55.40;;;;;;5054354;28;20752;-74
2021/10/05 00:26:27;;;;;;;2.42;1.77;;;23.00;55.50;;;;;;5060619;28;20396;-74
2021/10/05 00:28:53;;;;;;;2.22;1.95;;;23.00;55.40;;;;;;5064954;28;20387;-74
2021/10/05 00:31:19;;;;;;;2.43;1.90;;;23.00;55.30;;;;;;5051365;28;20396;-74
2021/10/05 00:33:45;;;;;;;2.25;1.73;;;23.00;55.30;;;;;;5055835;28;21079;-74
2021/10/05 00:36:11;;;;;;;2.75;1.95;;;23.00;55.30;;;;;;5057688;28;20499;-74
2021/10/05 00:38:37;;;;;;;2.57;1.63;;;23.00;55.40;;;;;;5065563;28;20387;-74
2021/10/05 00:41:03;;;;;;;2.60;1.70;;;23.00;55.40;;;;;;5065402;28;20396;-74
2021/10/05 00:43:29;;;;;;;2.50;1.85;;;23.00;55.30;;;;;;5063740;28;20407;-74
2021/10/05 00:45:55;;;;;;;1.95;1.73;;;23.00;55.40;;;;;;5065135;28;20444;-74
2021/10/05 00:48:21;;;;;;;2.17;1.80;;;23.00;55.30;;;;;;5064879;28;20521;-74
2021/10/05 00:50:47;;;;;;;2.13;1.92;;;23.00;55.30;;;;;;5064700;28;20437;-74
2021/10/05 00:53:14;;;;;;;3.15;2.00;;;23.00;55.30;;;;;;5064019;28;20395;-74
2021/10/05 00:55:40;;;;;;;2.60;2.00;;;23.00;55.40;;;;;;5064452;28;21292;-74
2021/10/05 00:58:06;;;;;;;2.40;1.90;;;23.00;55.50;;;;;;5064798;28;20401;-76
2021/10/05 01:00:32;;;;;;;3.15;2.25;;;22.90;55.30;;;;;;5064576;28;20387;-74
2021/10/05 01:02:58;;;;;;;2.40;2.10;;;22.90;55.30;;;;;;5055292;28;20918;-75
2021/10/05 01:05:24;;;;;;;2.70;2.05;;;22.90;55.40;;;;;;5064083;28;20406;-74
2021/10/05 01:07:50;;;;;;;2.50;2.10;;;22.90;55.30;;;;;;5064424;28;20388;-74
2021/10/05 01:10:17;;;;;;;2.30;2.00;;;22.90;55.30;;;;;;5064653;28;20396;-74
2021/10/05 01:12:48;;;;;;;2.50;2.10;;;22.90;55.30;;;;;;5064231;28;20422;-74
2021/10/05 01:15:14;;;;;;;2.45;2.20;;;22.90;55.30;;;;;;5054088;28;21687;-74
2021/10/05 01:17:40;;;;;;;2.95;1.90;;;22.90;55.30;;;;;;5064402;28;20891;-74
2021/10/05 01:20:07;;;;;;;2.47;2.03;;;22.90;55.30;;;;;;5064471;28;20453;-74
2021/10/05 01:22:33;;;;;;;2.25;1.92;;;22.90;55.30;;;;;;5064020;28;20645;-74
2021/10/05 01:25:04;;;;;;;2.33;1.95;;;22.90;55.30;;;;;;5050255;28;20820;-74
2021/10/05 01:27:29;;;;;;;2.22;1.70;;;22.90;55.30;;;;;;5063635;28;20867;-74
2021/10/05 01:29:55;;;;;;;2.80;1.80;;;22.90;55.30;;;;;;5064419;28;20457;-74
2021/10/05 01:32:21;;;;;;;2.40;1.90;;;22.90;55.30;;;;;;5054534;28;20513;-74
2021/10/05 01:34:46;;;;;;;2.38;2.17;;;22.90;55.20;;;;;;5062359;28;20387;-74
2021/10/05 01:37:12;;;;;;;2.63;2.00;;;22.90;55.30;;;;;;5056595;28;20458;-73
2021/10/05 01:39:38;;;;;;;2.45;2.00;;;22.90;55.30;;;;;;5053448;28;20392;-74
2021/10/05 01:42:13;;;;;;;2.65;2.05;;;22.90;55.30;;;;;;5056610;28;20400;-74
2021/10/05 01:44:39;;;;;;;2.47;2.00;;;22.90;55.30;;;;;;5079440;28;20482;-74
2021/10/05 01:47:06;;;;;;;2.55;2.05;;;22.90;55.30;;;;;;5053429;28;20437;-74
2021/10/05 01:49:32;;;;;;;2.10;1.83;;;22.80;55.20;;;;;;5063597;28;20423;-73
2021/10/05 01:51:58;;;;;;;2.97;2.28;;;22.90;55.20;;;;;;5063248;28;20867;-74
2021/10/05 01:54:24;;;;;;;2.20;2.00;;;22.80;55.20;;;;;;5063203;28;20404;-74
2021/10/05 01:56:50;;;;;;;2.20;1.90;;;22.80;55.20;;;;;;5063566;28;20415;-75
2021/10/05 01:59:16;;;;;;;2.50;2.17;;;22.80;55.30;;;;;;5063069;28;20384;-74
2021/10/05 02:01:42;;;;;;;1.95;1.70;;;22.80;55.20;;;;;;5053010;28;21014;-74
2021/10/05 02:04:09;;;;;;;2.42;1.90;;;22.80;55.30;;;;;;5059246;28;20438;-74
2021/10/05 02:06:36;;;;;;;2.45;2.00;;;22.80;55.20;;;;;;5095900;28;20399;-74
2021/10/05 02:09:03;;;;;;;2.30;1.90;;;22.80;55.20;;;;;;5062943;28;20824;-74
2021/10/05 02:11:29;;;;;;;2.20;1.92;;;22.80;55.20;;;;;;5062044;28;20399;-74
2021/10/05 02:13:55;;;;;;;2.83;2.20;;;22.80;55.20;;;;;;5063260;28;21071;-75
2021/10/05 02:16:20;;;;;;;2.47;2.00;;;22.80;55.20;;;;;;5053807;28;20427;-74
2021/10/05 02:18:46;;;;;;;2.50;1.90;;;22.80;55.10;;;;;;5062805;28;20466;-74
2021/10/05 02:21:18;;;;;;;2.67;2.00;;;22.80;55.20;;;;;;5062644;28;20438;-74
2021/10/05 02:26:30;;;;;;;2.60;1.80;;;22.80;55.20;;;;;;5063086;28;20790;-74
2021/10/05 02:28:56;;;;;;;2.53;2.05;;;22.80;55.30;;;;;;5062362;28;20390;-74
2021/10/05 02:31:22;;;;;;;2.57;2.10;;;22.80;55.20;;;;;;5062938;28;20388;-74
2021/10/05 02:33:48;;;;;;;2.30;1.93;;;22.80;55.20;;;;;;5051015;28;20411;-74
2021/10/05 02:36:14;;;;;;;2.50;2.28;;;22.80;55.20;;;;;;5062733;28;20781;-74
2021/10/05 02:38:39;;;;;;;2.20;2.00;;;22.80;55.30;;;;;;5061628;28;20863;-74
2021/10/05 02:41:05;;;;;;;3.50;2.28;;;22.80;55.30;;;;;;5050558;28;20925;-74
2021/10/05 02:43:31;;;;;;;2.53;2.20;;;22.80;55.20;;;;;;5062674;28;20396;-74
2021/10/05 02:45:56;;;;;;;2.35;2.03;;;22.70;55.40;;;;;;5062925;28;20503;-74
2021/10/05 02:48:22;;;;;;;2.40;1.83;;;22.80;55.30;;;;;;5062769;28;20395;-74
2021/10/05 02:50:48;;;;;;;2.17;1.90;;;22.70;55.20;;;;;;5062295;28;20395;-74
2021/10/05 02:53:13;;;;;;;3.20;1.93;;;22.70;55.30;;;;;;5062471;28;20489;-74
2021/10/05 02:55:40;;;;;;;2.38;1.98;;;22.70;55.30;;;;;;5062464;28;20407;-74
2021/10/05 02:58:09;;;;;;;2.93;2.13;;;22.70;55.40;;;;;;5062671;28;20427;-74
2021/10/05 03:00:35;;;;;;;2.58;2.13;;;22.70;55.20;;;;;;5062547;28;20387;-74
2021/10/05 03:03:01;;;;;;;2.78;2.17;;;22.70;55.30;;;;;;5061828;28;20726;-74
2021/10/05 03:05:26;;;;;;;2.47;1.87;;;22.70;55.20;;;;;;5061201;28;20417;-74
2021/10/05 03:07:52;;;;;;;4.85;2.72;;;22.70;55.30;;;;;;5062146;28;20442;-75
2021/10/05 03:10:18;;;;;;;4.10;2.43;;;22.70;56.40;;;;;;5062574;28;21438;-74
2021/10/05 03:12:43;;;;;;;3.90;2.40;;;22.80;57.10;;;;;;5061976;28;20911;-74
2021/10/05 03:15:09;;;;;;;3.43;2.40;;;22.80;57.60;;;;;;5061414;28;20419;-75
2021/10/05 03:17:35;;;;;;;11.87;3.17;;;22.80;57.20;;;;;;5062418;28;20880;-74
2021/10/05 03:20:00;;;;;;;4.75;2.70;;;22.90;58.90;;;;;;5053048;28;20388;-74
2021/10/05 03:22:26;;;;;;;6.23;2.97;;;22.90;58.90;;;;;;5062120;28;20745;-75
2021/10/05 03:24:52;;;;;;;8.10;2.85;;;23.00;58.80;;;;;;5055255;28;20889;-74
2021/10/05 03:27:18;;;;;;;7.37;2.97;;;23.00;59.50;;;;;;5061991;28;20487;-74
2021/10/05 03:29:43;;;;;;;9.05;3.08;;;23.10;59.40;;;;;;5062275;28;20423;-74
2021/10/05 03:32:09;;;;;;;11.60;3.37;;;23.10;59.20;;;;;;5062080;28;20890;-75
2021/10/05 03:34:35;;;;;;;7.43;2.92;;;23.10;59.60;;;;;;5053524;28;21010;-75
2021/10/05 03:37:01;;;;;;;7.70;2.80;;;23.10;59.80;;;;;;5061499;28;20423;-74
2021/10/05 03:39:26;;;;;;;4.80;2.72;;;23.10;59.70;;;;;;5063328;28;20906;-75
2021/10/05 03:41:52;;;;;;;7.97;3.27;;;23.10;59.60;;;;;;5062126;28;20482;-74
2021/10/05 03:44:18;;;;;;;8.02;2.88;;;23.10;59.30;;;;;;5062147;28;20415;-74
2021/10/05 03:46:43;;;;;;;8.90;3.60;;;23.20;60.00;;;;;;5060753;28;20407;-75
2021/10/05 03:49:09;;;;;;;5.93;3.15;;;23.20;59.90;;;;;;5061695;28;20387;-74
2021/10/05 03:51:35;;;;;;;5.77;2.93;;;23.30;60.00;;;;;;5064375;28;20812;-74
2021/10/05 03:54:00;;;;;;;6.50;3.00;;;23.30;60.00;;;;;;5057896;28;20392;-74
2021/10/05 03:56:26;;;;;;;6.00;2.90;;;23.30;59.20;;;;;;5064457;28;20493;-75
2021/10/05 03:58:52;;;;;;;8.18;3.00;;;23.20;59.50;;;;;;5060010;28;20388;-75
2021/10/05 04:01:17;;;;;;;8.50;3.00;;;23.30;59.40;;;;;;5063606;28;20395;-74
2021/10/05 04:03:43;;;;;;;8.63;2.90;;;23.20;59.00;;;;;;5058173;28;20752;-75
2021/10/05 04:06:10;;;;;;;6.78;3.08;;;23.30;59.00;;;;;;5060439;28;20645;-74
2021/10/05 04:08:36;;;;;;;7.10;2.90;;;23.30;58.70;;;;;;5063601;28;20411;-75
2021/10/05 04:11:03;;;;;;;9.23;2.97;;;23.20;58.20;;;;;;5055670;28;20395;-74
2021/10/05 04:13:29;;;;;;;6.28;3.05;;;23.20;58.20;;;;;;5066450;28;20402;-75
2021/10/05 04:15:54;;;;;;;6.57;3.30;;;23.20;58.10;;;;;;5066257;28;20998;-75
2021/10/05 04:18:20;;;;;;;5.82;3.22;;;23.20;58.00;;;;;;5065573;28;20403;-75
2021/10/05 04:20:46;;;;;;;5.93;3.20;;;23.20;58.00;;;;;;5065433;28;20982;-75
2021/10/05 04:23:12;;;;;;;7.10;3.00;;;23.10;57.50;;;;;;5065002;28;20387;-75
2021/10/05 04:25:37;;;;;;;5.27;2.70;;;23.10;57.30;;;;;;5054740;28;20635;-75
2021/10/05 04:28:03;;;;;;;7.10;3.28;;;23.10;58.70;;;;;;5065679;28;20430;-76
2021/10/05 04:30:29;;;;;;;7.78;3.40;;;23.20;59.00;;;;;;5058218;28;20396;-75
2021/10/05 04:32:55;;;;;;;5.43;3.13;;;23.20;58.90;;;;;;5064577;28;20894;-75
2021/10/05 04:35:20;;;;;;;5.60;3.20;;;23.20;58.90;;;;;;5064766;28;20392;-75
2021/10/05 04:37:46;;;;;;;6.13;2.97;;;23.20;58.60;;;;;;5066213;28;20399;-75
2021/10/05 04:40:12;;;;;;;6.60;2.93;;;23.30;58.70;;;;;;5070619;28;20391;-75
2021/10/05 04:42:38;;;;;;;4.82;2.72;;;23.30;58.60;;;;;;5057863;28;20422;-75
2021/10/05 04:45:05;;;;;;;6.20;2.92;;;23.20;58.10;;;;;;5054759;28;20388;-75
2021/10/05 04:47:31;;;;;;;6.60;2.53;;;23.20;58.30;;;;;;5062620;28;20403;-75
2021/10/05 04:49:56;;;;;;;3.73;2.60;;;23.20;58.20;;;;;;5065307;28;20392;-75
2021/10/05 04:52:22;;;;;;;6.03;3.10;;;23.10;57.90;;;;;;5065058;28;20443;-75
2021/10/05 04:54:48;;;;;;;5.20;2.70;;;23.10;58.40;;;;;;5063000;28;20787;-75
2021/10/05 04:57:14;;;;;;;5.28;3.00;;;23.20;58.40;;;;;;5063487;28;21043;-74
2021/10/05 04:59:39;;;;;;;4.60;2.73;;;23.20;58.50;;;;;;5063243;28;20415;-75
2021/10/05 05:02:05;;;;;;;8.75;3.03;;;23.20;58.30;;;;;;5059126;28;20461;-75
2021/10/05 05:04:30;;;;;;;5.72;2.70;;;23.20;58.40;;;;;;5064426;28;20979;-75
2021/10/05 05:06:56;;;;;;;6.43;2.83;;;23.10;58.10;;;;;;5096693;28;20910;-74
2021/10/05 05:09:22;;;;;;;5.70;2.50;;;23.20;58.10;;;;;;5057585;28;21048;-75
2021/10/05 05:11:47;;;;;;;6.87;3.00;;;23.10;58.00;;;;;;5064713;28;20872;-74
2021/10/05 05:14:14;;;;;;;6.70;3.10;;;23.10;57.80;;;;;;5048933;28;20392;-75
2021/10/05 05:16:41;;;;;;;5.40;3.03;;;23.10;57.70;;;;;;5063156;28;20461;-75
2021/10/05 05:19:08;;;;;;;5.53;2.88;;;23.00;57.60;;;;;;5063915;28;20391;-74
2021/10/05 05:21:34;;;;;;;5.67;3.00;;;23.00;57.60;;;;;;5054623;28;20694;-78
2021/10/05 05:24:00;;;;;;;5.47;2.92;;;23.00;57.50;;;;;;5064406;28;20482;-75
2021/10/05 05:26:26;;;;;;;4.63;2.90;;;23.00;57.30;;;;;;5063479;28;20396;-75
2021/10/05 05:28:53;;;;;;;11.48;2.97;;;23.00;57.30;;;;;;5063801;28;20395;-75
2021/10/05 05:31:19;;;;;;;5.80;3.13;;;23.00;57.30;;;;;;5052395;28;20392;-75
2021/10/05 05:33:45;;;;;;;5.47;2.70;;;23.00;57.30;;;;;;5063143;28;20394;-75
2021/10/05 05:36:11;;;;;;;4.20;2.50;;;23.00;57.20;;;;;;5063631;28;20424;-75
2021/10/05 05:38:36;;;;;;;5.00;2.80;;;23.00;57.30;;;;;;5062399;28;20502;-75
2021/10/05 05:41:02;;;;;;;4.60;2.80;;;23.00;57.10;;;;;;5055475;28;20400;-75
2021/10/05 05:43:28;;;;;;;2.97;2.30;;;23.00;57.10;;;;;;5063600;28;20384;-75
2021/10/05 05:45:54;;;;;;;5.32;2.40;;;23.00;57.00;;;;;;5063479;28;20388;-75
2021/10/05 05:48:20;;;;;;;3.58;2.50;;;22.90;56.90;;;;;;5095009;28;20433;-75
2021/10/05 05:50:46;;;;;;;4.63;2.75;;;23.00;56.90;;;;;;5063233;28;20760;-75
2021/10/05 05:53:12;;;;;;;4.87;2.40;;;22.90;56.80;;;;;;5062685;28;20422;-75
2021/10/05 05:55:37;;;;;;;4.57;2.50;;;22.90;56.90;;;;;;5063035;28;20791;-75
2021/10/05 05:58:14;;;;;;;3.30;2.38;;;22.90;56.70;;;;;;5054617;28;20400;-75
2021/10/05 06:00:41;;;;;;;3.78;2.42;;;22.90;56.70;;;;;;5048629;28;20433;-75
2021/10/05 06:03:07;;;;;;;4.97;2.47;;;22.90;56.60;;;;;;5048762;28;20404;-75
2021/10/05 06:05:33;;;;;;;3.63;2.60;;;22.90;56.60;;;;;;5063444;28;20394;-75
2021/10/05 06:07:59;;;;;;;3.90;2.58;;;22.90;56.60;;;;;;5062518;28;20424;-75
2021/10/05 06:10:24;;;;;;;3.80;2.35;;;22.90;56.50;;;;;;5063021;28;20392;-75
2021/10/05 06:12:50;;;;;;;3.77;2.30;;;22.90;56.60;;;;;;5062543;28;20400;-75
2021/10/05 06:15:17;;;;;;;2.97;2.30;;;22.90;56.50;;;;;;5054312;28;20991;-75
2021/10/05 06:17:45;;;;;;;4.20;2.27;;;22.90;56.50;;;;;;5062377;28;20492;-75
2021/10/05 06:20:13;;;;;;;3.72;2.20;;;22.90;56.50;;;;;;5062608;28;20810;-75
2021/10/05 06:22:40;;;;;;;3.08;2.00;;;22.90;56.40;;;;;;5061975;28;20670;-75
2021/10/05 06:25:09;;;;;;;4.63;2.08;;;22.90;56.40;;;;;;5062032;28;20398;-75
2021/10/05 06:27:34;;;;;;;2.92;2.10;;;22.80;56.30;;;;;;5062466;28;20397;-75
2021/10/05 06:30:00;;;;;;;2.88;2.15;;;22.80;56.30;;;;;;5062504;28;20749;-75
2021/10/05 06:32:26;;;;;;;3.10;2.07;;;22.80;56.30;;;;;;5062623;28;20396;-75
2021/10/05 06:34:52;;;;;;;2.95;2.10;;;22.80;56.30;;;;;;5062317;28;20394;-75
2021/10/05 06:37:18;;;;;;;3.50;2.00;;;22.90;56.30;;;;;;5061797;28;20879;-75
2021/10/05 06:39:44;;;;;;;2.80;2.00;;;22.80;56.20;;;;;;5051771;28;20489;-75
2021/10/05 06:42:10;;;;;;;2.73;1.80;;;22.80;56.10;;;;;;5062453;28;20950;-74
2021/10/05 06:44:36;;;;;;;4.18;2.28;;;22.80;56.10;;;;;;5062834;28;20831;-75
2021/10/05 06:47:02;;;;;;;2.95;2.20;;;22.80;56.10;;;;;;5061908;28;20407;-75
2021/10/05 06:49:27;;;;;;;2.60;1.80;;;22.80;56.10;;;;;;5062087;28;20532;-75
2021/10/05 06:51:53;;;;;;;2.55;1.80;;;22.80;56.10;;;;;;5050972;28;20425;-75
2021/10/05 06:54:19;;;;;;;2.23;1.63;;;22.80;56.10;;;;;;5062520;28;20479;-75
2021/10/05 06:56:44;;;;;;;2.50;1.95;;;22.80;56.00;;;;;;5061905;28;20430;-75
2021/10/05 06:59:10;;;;;;;2.87;2.03;;;22.80;56.00;;;;;;5053585;28;20411;-75
2021/10/05 07:01:36;;;;;;;2.30;1.80;;;22.80;56.00;;;;;;5060664;28;20409;-75
2021/10/05 07:04:02;;;;;;;2.63;1.85;;;22.80;56.10;;;;;;5077474;28;20452;-75
2021/10/05 07:06:27;;;;;;;3.10;1.80;;;22.80;56.00;;;;;;5061973;28;20396;-75
2021/10/05 07:08:54;;;;;;;2.73;2.07;;;22.80;56.00;;;;;;5061630;28;20403;-75
2021/10/05 07:11:20;;;;;;;2.00;1.65;;;22.80;55.90;;;;;;5060109;28;20435;-74
2021/10/05 07:13:46;;;;;;;3.20;2.13;;;22.80;56.00;;;;;;5061782;28;20426;-75
2021/10/05 07:16:11;;;;;;;2.50;1.90;;;22.70;55.80;;;;;;5061739;28;20494;-75
2021/10/05 07:18:37;;;;;;;2.33;1.73;;;22.70;55.90;;;;;;5061663;28;20427;-75
2021/10/05 07:21:03;;;;;;;2.35;1.67;;;22.70;55.80;;;;;;5061619;28;20390;-75
2021/10/05 07:23:29;;;;;;;2.23;1.70;;;22.70;55.90;;;;;;5061509;28;20399;-75
2021/10/05 07:25:55;;;;;;;2.45;1.70;;;22.70;55.90;;;;;;5061285;28;20743;-75
2021/10/05 07:28:21;;;;;;;2.65;1.77;;;22.70;55.90;;;;;;5061790;28;20395;-75
2021/10/05 07:30:47;;;;;;;2.70;1.53;;;22.70;55.90;;;;;;5061595;28;20392;-74
2021/10/05 07:33:13;;;;;;;2.20;1.58;;;22.70;55.90;;;;;;5061473;28;20882;-75
2021/10/05 07:35:40;;;;;;;2.05;1.52;;;22.70;55.90;;;;;;5061614;28;20390;-75
2021/10/05 07:38:06;;;;;;;2.03;1.50;;;22.70;55.90;;;;;;5053576;28;20437;-75
2021/10/05 07:40:32;;;;;;;2.35;1.50;;;22.70;55.80;;;;;;5046179;28;20396;-75
2021/10/05 07:42:59;;;;;;;2.30;1.70;;;22.70;56.40;;;;;;5061290;28;20402;-75
2021/10/05 07:45:27;;;;;;;2.20;1.75;;;22.70;55.80;;;;;;5050718;28;20422;-75
2021/10/05 07:47:52;;;;;;;1.75;1.40;;;22.70;55.80;;;;;;5061401;28;20400;-75
2021/10/05 07:50:18;;;;;;;2.28;1.45;;;22.70;55.70;;;;;;5061162;28;20398;-75
2021/10/05 07:52:44;;;;;;;2.20;1.60;;;22.70;55.80;;;;;;5060311;28;20911;-75
2021/10/05 07:55:10;;;;;;;2.00;1.60;;;22.70;55.80;;;;;;5049863;28;20395;-75
2021/10/05 07:57:36;;;;;;;2.60;1.67;;;22.70;55.70;;;;;;5061356;28;20415;-75
2021/10/05 08:00:04;;;;;;;1.95;1.60;;;22.70;55.70;;;;;;5052809;28;20392;-74
2021/10/05 08:02:30;;;;;;;1.80;1.40;;;22.70;55.70;;;;;;5060889;28;20457;-75
2021/10/05 08:04:56;;;;;;;2.33;1.50;;;22.70;55.70;;;;;;5061550;28;20384;-75
2021/10/05 08:07:26;;;;;;;1.60;1.38;;;22.70;55.60;;;;;;5060825;28;20398;-75
2021/10/05 08:09:56;;;;;;;1.70;1.33;;;22.70;55.70;;;;;;5061149;28;20720;-75
2021/10/05 08:12:23;;;;;;;1.95;1.38;;;22.70;55.70;;;;;;5047881;28;20796;-75
2021/10/05 08:14:50;;;;;;;1.65;1.23;;;22.70;55.70;;;;;;5059474;28;20775;-75
2021/10/05 08:17:16;;;;;;;1.80;1.30;;;22.70;55.70;;;;;;5060760;28;20925;-75
2021/10/05 08:19:42;;;;;;;1.37;1.07;;;22.70;55.70;;;;;;5061058;28;20608;-74
2021/10/05 08:22:08;;;;;;;1.58;1.33;;;22.70;55.70;;;;;;5061309;28;20384;-75
2021/10/05 08:24:35;;;;;;;1.83;1.40;;;22.70;55.70;;;;;;5061025;28;20417;-75
2021/10/05 08:27:01;;;;;;;1.77;1.38;;;22.60;55.60;;;;;;5061005;28;20383;-74
2021/10/05 08:29:27;;;;;;;2.00;1.30;;;22.70;55.70;;;;;;5060994;28;20387;-75
2021/10/05 08:31:52;;;;;;;1.90;1.40;;;22.60;55.50;;;;;;5061107;28;20546;-75
2021/10/05 08:34:18;;;;;;;1.90;1.30;;;22.60;55.50;;;;;;5061234;28;20463;-75
2021/10/05 08:36:44;;;;;;;2.00;1.30;;;22.60;55.50;;;;;;5063706;28;20480;-75
2021/10/05 08:39:14;;;;;;;1.70;1.30;;;22.60;55.50;;;;;;5049822;28;20419;-75
2021/10/05 08:41:42;;;;;;;1.95;1.30;;;22.60;55.50;;;;;;5064681;28;20768;-75
2021/10/05 08:44:08;;;;;;;2.35;1.58;;;22.60;55.40;;;;;;5064787;28;20490;-75
2021/10/05 08:46:37;;;;;;;1.58;1.10;;;22.60;55.50;;;;;;5064754;28;20517;-75
2021/10/05 08:49:03;;;;;;;1.70;1.33;;;22.60;55.40;;;;;;5064172;28;21152;-75
2021/10/05 08:51:29;;;;;;;1.70;1.40;;;22.60;55.40;;;;;;5056228;28;20395;-75
2021/10/05 08:53:55;;;;;;;1.50;1.02;;;22.60;55.40;;;;;;5052167;28;20540;-75
2021/10/05 08:56:20;;;;;;;1.40;1.10;;;22.60;55.40;;;;;;5063664;28;20892;-75
2021/10/05 08:58:46;;;;;;;1.40;1.20;;;22.60;55.50;;;;;;5064394;28;20433;-75
2021/10/05 09:01:13;;;;;;;1.35;1.10;;;22.60;55.50;;;;;;5063800;28;20797;-74
2021/10/05 09:03:54;;;;;;;1.48;1.15;;;22.60;55.50;;;;;;5064722;28;20403;-75
2021/10/05 09:06:22;;;;;;;1.70;1.20;;;22.60;55.50;;;;;;5063917;28;20402;-75
2021/10/05 09:08:49;;;;;;;1.40;0.98;;;22.60;55.50;;;;;;5063960;28;20794;-75
2021/10/05 09:11:17;;;;;;;1.47;1.10;;;22.60;55.50;;;;;;5063840;28;20838;-74
2021/10/05 09:13:47;;;;;;;1.40;0.90;;;22.60;55.50;;;;;;5064102;28;20437;-74
2021/10/05 09:16:26;;;;;;;1.60;1.15;;;22.60;55.40;;;;;;5062635;28;20421;-75
2021/10/05 09:18:56;;;;;;;1.60;0.98;;;22.60;55.40;;;;;;5063908;28;20384;-75
2021/10/05 09:21:35;;;;;;;1.45;1.15;;;22.60;55.40;;;;;;5052527;28;20422;-75
2021/10/05 09:24:07;;;;;;;1.60;1.20;;;22.60;55.40;;;;;;5064548;28;20421;-75
2021/10/05 09:26:34;;;;;;;1.88;1.10;;;22.60;55.40;;;;;;5063595;28;20395;-75
2021/10/05 09:29:16;;;;;;;1.30;1.02;;;22.60;55.30;;;;;;5064192;28;20856;-75
2021/10/05 09:32:07;;;;;;;1.48;1.10;;;22.60;55.30;;;;;;5053656;28;20918;-75
2021/10/05 09:34:56;;;;;;;1.92;1.20;;;22.60;55.30;;;;;;5058398;28;20892;-75
2021/10/05 09:37:31;;;;;;;1.48;1.10;;;22.60;55.30;;;;;;5063096;28;20447;-75
2021/10/05 09:40:10;;;;;;;1.40;0.90;;;22.60;55.30;;;;;;5062234;28;20433;-75
2021/10/05 09:42:43;;;;;;;1.40;1.05;;;22.60;55.30;;;;;;5063663;28;20431;-75
2021/10/05 09:45:10;;;;;;;1.50;1.05;;;22.60;55.30;;;;;;5052264;28;21171;-75
2021/10/05 09:47:39;;;;;;;1.60;1.03;;;22.60;55.40;;;;;;5061778;28;20449;-75
2021/10/05 09:50:09;;;;;;;1.40;1.10;;;22.60;55.30;;;;;;5047903;28;20494;-75
2021/10/05 09:52:48;;;;;;;1.23;0.90;;;22.60;55.40;;;;;;5063369;28;20409;-75
2021/10/05 09:55:15;;;;;;;1.23;0.80;;;22.60;55.40;;;;;;5063134;28;20399;-75
2021/10/05 09:57:41;;;;;;;1.60;1.03;;;22.60;55.30;;;;;;5063283;28;20419;-75
2021/10/05 10:00:08;;;;;;;1.80;1.00;;;22.60;55.30;;;;;;5063415;28;20554;-75
2021/10/05 10:02:37;;;;;;;1.42;0.93;;;22.60;55.30;;;;;;5063202;28;20388;-75
2021/10/05 10:05:07;;;;;;;1.30;0.90;;;22.60;55.30;;;;;;5047889;28;20375;-75
2021/10/05 10:07:37;;;;;;;1.13;0.90;;;22.60;55.30;;;;;;5062502;28;20399;-74
2021/10/05 10:10:05;;;;;;;1.40;0.95;;;22.50;55.30;;;;;;5052123;28;20538;-75
2021/10/05 10:12:32;;;;;;;1.52;1.08;;;22.50;55.20;;;;;;5062225;28;20935;-75
2021/10/05 10:14:58;;;;;;;1.85;1.15;;;22.50;55.20;;;;;;5047855;28;20814;-75
2021/10/05 10:17:24;;;;;;;1.10;0.90;;;22.60;55.30;;;;;;5047898;28;20927;-75
2021/10/05 10:19:51;;;;;;;1.45;0.95;;;22.60;55.20;;;;;;5061397;28;20387;-75
2021/10/05 10:22:16;;;;;;;1.42;0.90;;;22.50;55.20;;;;;;5062661;28;20898;-75
2021/10/05 10:24:47;;;;;;;1.73;1.10;;;22.50;55.20;;;;;;5062611;28;20391;-75
2021/10/05 10:27:13;;;;;;;1.40;1.02;;;22.50;55.20;;;;;;5062204;28;20388;-75
2021/10/05 10:29:39;;;;;;;1.30;0.82;;;22.50;55.30;;;;;;5062091;28;20380;-75
2021/10/05 10:32:15;;;;;;;1.35;1.00;;;22.50;55.20;;;;;;5063200;28;20486;-75
2021/10/05 10:34:43;;;;;;;1.20;0.90;;;22.50;55.30;;;;;;5051597;28;20419;-75
2021/10/05 10:37:26;;;;;;;1.13;0.83;;;22.50;55.30;;;;;;5061516;28;21033;-75
2021/10/05 10:39:54;;;;;;;1.75;0.80;;;22.50;55.30;;;;;;5062212;28;20502;-75
2021/10/05 10:42:30;;;;;;;1.30;0.90;;;22.50;55.20;;;;;;5062108;28;20422;-75
2021/10/05 10:44:56;;;;;;;1.10;0.80;;;22.50;55.20;;;;;;5053197;28;20426;-75
2021/10/05 10:47:24;;;;;;;1.30;0.80;;;22.50;55.20;;;;;;5061600;28;20384;-75
2021/10/05 10:49:53;;;;;;;1.48;1.00;;;22.50;55.20;;;;;;5062136;28;20391;-75
2021/10/05 10:52:27;;;;;;;1.23;0.80;;;22.50;55.20;;;;;;5052707;28;20615;-75
2021/10/05 10:54:57;;;;;;;1.13;0.80;;;22.50;55.20;;;;;;5059582;28;20791;-75
2021/10/05 10:57:35;;;;;;;1.00;0.80;;;22.50;55.20;;;;;;5061695;28;20899;-75
2021/10/05 11:00:26;;;;;;;1.20;0.90;;;22.50;55.20;;;;;;5061311;28;20403;-75
2021/10/05 11:03:00;;;;;;;1.30;0.90;;;22.50;55.20;;;;;;5049583;28;20868;-75
2021/10/05 11:05:30;;;;;;;1.17;0.88;;;22.50;55.20;;;;;;5046836;28;20402;-75
2021/10/05 11:07:57;;;;;;;1.25;0.93;;;22.50;55.20;;;;;;5061535;28;20422;-75
2021/10/05 11:10:31;;;;;;;1.10;0.70;;;22.50;55.20;;;;;;5060716;28;20426;-75
2021/10/05 11:13:00;;;;;;;1.40;0.90;;;22.50;55.20;;;;;;5061951;28;20666;-75
2021/10/05 11:15:34;;;;;;;1.10;0.80;;;22.50;55.20;;;;;;5061179;28;20786;-75
2021/10/05 11:18:15;;;;;;;1.20;0.80;;;22.50;55.30;;;;;;5044731;28;20426;-75
2021/10/05 11:20:46;;;;;;;1.10;0.82;;;22.50;55.30;;;;;;5062534;28;20387;-75
2021/10/05 11:23:13;;;;;;;1.20;0.80;;;22.50;55.30;;;;;;5061899;28;20392;-75
2021/10/05 11:25:55;;;;;;;1.00;0.63;;;22.50;55.30;;;;;;5061332;28;20395;-75
2021/10/05 11:28:29;;;;;;;1.20;0.88;;;22.50;55.30;;;;;;5093801;28;20395;-75
2021/10/05 11:31:04;;;;;;;1.10;0.70;;;22.50;55.30;;;;;;5061464;28;20392;-75
2021/10/05 11:33:36;;;;;;;1.27;0.70;;;22.50;55.30;;;;;;5061214;28;20913;-75
2021/10/05 11:36:12;;;;;;;1.20;0.80;;;22.50;55.40;;;;;;5061773;28;20410;-75
2021/10/05 11:38:49;;;;;;;1.13;0.80;;;22.50;55.30;;;;;;5061291;28;20453;-75
2021/10/05 11:41:16;;;;;;;0.93;0.68;;;22.50;55.30;;;;;;5061122;28;20411;-74
2021/10/05 11:43:50;;;;;;;1.02;0.70;;;22.60;55.30;;;;;;5061189;28;20392;-75
2021/10/05 11:46:25;;;;;;;1.63;0.90;;;22.60;55.30;;;;;;5061380;28;20388;-75
2021/10/05 11:48:53;;;;;;;2.70;1.20;;;22.50;57.20;;;;;;5062036;28;20382;-75
2021/10/05 11:51:21;;;;;;;2.72;1.08;;;22.50;56.20;;;;;;5059811;28;20474;-74
2021/10/05 11:53:48;;;;;;;1.80;1.00;;;22.50;56.10;;;;;;5046243;28;20396;-75
2021/10/05 11:56:19;;;;;;;2.45;0.93;;;22.50;56.40;;;;;;5061788;28;20450;-74
2021/10/05 11:58:48;;;;;;;3.92;1.27;;;22.50;57.60;;;;;;5060629;28;20410;-75
2021/10/05 12:01:18;;;;;;;5.38;1.20;;;22.50;56.70;;;;;;5052550;28;20833;-75
2021/10/05 12:03:45;;;;;;;2.53;1.30;;;22.60;56.50;;;;;;5061757;28;20811;-75
2021/10/05 12:06:10;;;;;;;3.72;1.13;;;22.50;56.40;;;;;;5061970;28;20471;-75
2021/10/05 12:08:55;;;;;;;3.65;1.08;;;22.50;57.00;;;;;;5051995;28;20494;-75
2021/10/05 12:11:20;;;;;;;3.17;0.93;;;22.50;56.00;;;;;;5095752;28;20426;-75
2021/10/05 12:13:46;;;;;;;3.43;1.13;;;22.50;55.60;;;;;;5065440;28;20482;-75
2021/10/05 12:16:16;;;;;;;2.25;1.00;;;22.50;55.30;;;;;;5064129;28;21404;-74
2021/10/05 12:18:47;;;;;;;1.90;0.88;;;22.50;55.10;;;;;;5061564;28;20410;-75
2021/10/05 12:21:14;;;;;;;6.28;1.05;;;22.50;55.30;;;;;;5062197;28;20499;-75
2021/10/05 12:23:55;;;;;;;2.70;0.90;;;22.50;55.10;;;;;;5065012;28;20910;-75
2021/10/05 12:26:22;;;;;;;2.92;0.70;;;22.50;55.10;;;;;;5066289;28;20392;-74
2021/10/05 12:29:10;;;;;;;1.80;0.63;;;22.50;55.10;;;;;;5064839;28;20521;-75
2021/10/05 12:31:36;;;;;;;2.78;0.70;;;22.50;55.00;;;;;;5064844;28;20384;-75
2021/10/05 12:34:09;;;;;;;1.73;1.00;;;22.50;55.30;;;;;;5063739;28;20430;-75
2021/10/05 12:36:38;;;;;;;4.83;1.23;;;22.40;54.90;;;;;;5064996;28;20415;-75
2021/10/05 12:39:13;;;;;;;2.53;0.95;;;22.50;56.80;;;;;;5065673;28;20487;-74
2021/10/05 12:41:41;;;;;;;2.75;1.05;;;22.50;56.30;;;;;;5096522;27;20465;-75
2021/10/05 12:44:19;;;;;;;1.85;0.90;;;22.50;55.90;;;;;;5063546;28;20425;-75
2021/10/05 12:46:56;;;;;;;2.85;0.90;;;22.50;56.00;;;;;;5063220;28;20744;-75
2021/10/05 12:49:22;;;;;;;1.63;1.00;;;22.50;56.20;;;;;;5062823;28;20430;-75
2021/10/05 12:51:49;;;;;;;2.80;0.93;;;22.50;56.60;;;;;;5063380;28;20486;-75